sensor_id;sensor_type;location;lat;lon;timestamp;P1;durP1;ratioP1;P2;durP2;ratioP2
45764;SDS011;31474;45.332;10.230;2022-09-09T00:01:08;23.13;;;13.70;;
45764;SDS011;31474;45.332;10.230;2022-09-09T00:06:45;20.80;;;14.45;;
45764;SDS011;31474;45.332;10.230;2022-09-09T00:09:48;19.88;;;13.32;;
45764;SDS011;31474;45.332;10.230;2022-09-09T00:15:02;19.25;;;14.07;;
45764;SDS011;31474;45.332;10.230;2022-09-09T00:22:38;19.88;;;14.73;;
45764;SDS011;31474;45.332;10.230;2022-09-09T00:27:46;19.63;;;14.30;;
45764;SDS011;31474;45.332;10.230;2022-09-09T00:30:20;22.17;;;14.05;;
45764;SDS011;31474;45.332;10.230;2022-09-09T00:32:49;17.70;;;15.05;;
45764;SDS011;31474;45.332;10.230;2022-09-09T00:35:33;16.95;;;13.73;;
45764;SDS011;31474;45.332;10.230;2022-09-09T00:38:04;19.17;;;14.40;;
45764;SDS011;31474;45.332;10.230;2022-09-09T00:40:39;18.10;;;14.30;;
45764;SDS011;31474;45.332;10.230;2022-09-09T00:48:29;24.45;;;15.40;;
45764;SDS011;31474;45.332;10.230;2022-09-09T00:51:21;20.90;;;15.45;;
45764;SDS011;31474;45.332;10.230;2022-09-09T01:00:25;19.98;;;14.73;;
45764;SDS011;31474;45.332;10.230;2022-09-09T01:08:18;19.52;;;15.07;;
45764;SDS011;31474;45.332;10.230;2022-09-09T01:11:32;23.45;;;14.65;;
45764;SDS011;31474;45.332;10.230;2022-09-09T01:14:02;18.65;;;14.52;;
45764;SDS011;31474;45.332;10.230;2022-09-09T01:16:50;19.38;;;13.40;;
45764;SDS011;31474;45.332;10.230;2022-09-09T01:19:26;19.73;;;14.95;;
45764;SDS011;31474;45.332;10.230;2022-09-09T01:22:26;21.23;;;15.80;;
45764;SDS011;31474;45.332;10.230;2022-09-09T01:27:51;21.23;;;14.57;;
45764;SDS011;31474;45.332;10.230;2022-09-09T01:30:21;16.70;;;14.15;;
45764;SDS011;31474;45.332;10.230;2022-09-09T01:32:49;19.45;;;14.95;;
45764;SDS011;31474;45.332;10.230;2022-09-09T01:35:32;18.33;;;14.68;;
45764;SDS011;31474;45.332;10.230;2022-09-09T01:38:10;20.25;;;14.88;;
45764;SDS011;31474;45.332;10.230;2022-09-09T01:40:36;19.00;;;14.57;;
45764;SDS011;31474;45.332;10.230;2022-09-09T01:43:02;20.95;;;14.25;;
45764;SDS011;31474;45.332;10.230;2022-09-09T01:45:29;19.73;;;14.07;;
45764;SDS011;31474;45.332;10.230;2022-09-09T01:47:55;20.55;;;14.65;;
45764;SDS011;31474;45.332;10.230;2022-09-09T01:50:22;17.75;;;14.85;;
45764;SDS011;31474;45.332;10.230;2022-09-09T01:52:53;18.52;;;13.88;;
45764;SDS011;31474;45.332;10.230;2022-09-09T01:55:32;20.17;;;14.02;;
45764;SDS011;31474;45.332;10.230;2022-09-09T01:58:16;18.55;;;13.75;;
45764;SDS011;31474;45.332;10.230;2022-09-09T02:03:56;19.25;;;13.95;;
45764;SDS011;31474;45.332;10.230;2022-09-09T02:06:27;19.48;;;14.50;;
45764;SDS011;31474;45.332;10.230;2022-09-09T02:09:04;22.40;;;14.55;;
45764;SDS011;31474;45.332;10.230;2022-09-09T02:11:31;16.38;;;13.13;;
45764;SDS011;31474;45.332;10.230;2022-09-09T02:14:00;15.38;;;13.20;;
45764;SDS011;31474;45.332;10.230;2022-09-09T02:19:26;15.35;;;12.70;;
45764;SDS011;31474;45.332;10.230;2022-09-09T02:21:57;16.92;;;12.18;;
45764;SDS011;31474;45.332;10.230;2022-09-09T02:24:25;18.55;;;12.55;;
45764;SDS011;31474;45.332;10.230;2022-09-09T02:26:54;16.48;;;14.13;;
45764;SDS011;31474;45.332;10.230;2022-09-09T02:29:26;17.38;;;12.57;;
45764;SDS011;31474;45.332;10.230;2022-09-09T02:34:23;17.88;;;12.05;;
45764;SDS011;31474;45.332;10.230;2022-09-09T02:36:49;15.38;;;12.55;;
45764;SDS011;31474;45.332;10.230;2022-09-09T02:39:18;17.83;;;12.35;;
45764;SDS011;31474;45.332;10.230;2022-09-09T02:41:44;15.20;;;12.02;;
45764;SDS011;31474;45.332;10.230;2022-09-09T02:44:11;19.73;;;12.73;;
45764;SDS011;31474;45.332;10.230;2022-09-09T02:47:13;19.10;;;13.52;;
45764;SDS011;31474;45.332;10.230;2022-09-09T02:49:56;19.55;;;12.05;;
45764;SDS011;31474;45.332;10.230;2022-09-09T02:55:04;16.05;;;13.25;;
45764;SDS011;31474;45.332;10.230;2022-09-09T02:57:33;18.35;;;13.07;;
45764;SDS011;31474;45.332;10.230;2022-09-09T03:00:00;15.50;;;12.98;;
45764;SDS011;31474;45.332;10.230;2022-09-09T03:02:26;14.90;;;12.23;;
45764;SDS011;31474;45.332;10.230;2022-09-09T03:04:52;19.92;;;13.20;;
45764;SDS011;31474;45.332;10.230;2022-09-09T03:07:18;15.07;;;12.52;;
45764;SDS011;31474;45.332;10.230;2022-09-09T03:09:44;18.70;;;12.77;;
45764;SDS011;31474;45.332;10.230;2022-09-09T03:12:10;16.23;;;12.55;;
45764;SDS011;31474;45.332;10.230;2022-09-09T03:14:36;17.42;;;12.15;;
45764;SDS011;31474;45.332;10.230;2022-09-09T03:17:03;18.33;;;13.23;;
45764;SDS011;31474;45.332;10.230;2022-09-09T03:19:30;17.17;;;13.65;;
45764;SDS011;31474;45.332;10.230;2022-09-09T03:21:56;19.40;;;13.68;;
45764;SDS011;31474;45.332;10.230;2022-09-09T03:24:23;15.10;;;12.10;;
45764;SDS011;31474;45.332;10.230;2022-09-09T03:26:49;22.70;;;12.73;;
45764;SDS011;31474;45.332;10.230;2022-09-09T03:29:15;19.10;;;12.95;;
45764;SDS011;31474;45.332;10.230;2022-09-09T03:31:43;17.65;;;12.43;;
45764;SDS011;31474;45.332;10.230;2022-09-09T03:34:09;13.05;;;11.25;;
45764;SDS011;31474;45.332;10.230;2022-09-09T03:36:36;16.10;;;11.45;;
45764;SDS011;31474;45.332;10.230;2022-09-09T03:39:02;16.35;;;12.38;;
45764;SDS011;31474;45.332;10.230;2022-09-09T03:41:28;14.00;;;11.23;;
45764;SDS011;31474;45.332;10.230;2022-09-09T03:43:55;14.10;;;11.30;;
45764;SDS011;31474;45.332;10.230;2022-09-09T03:46:21;15.38;;;10.38;;
45764;SDS011;31474;45.332;10.230;2022-09-09T03:48:49;16.35;;;10.90;;
45764;SDS011;31474;45.332;10.230;2022-09-09T03:51:15;13.57;;;10.30;;
45764;SDS011;31474;45.332;10.230;2022-09-09T03:53:41;14.85;;;10.40;;
45764;SDS011;31474;45.332;10.230;2022-09-09T03:56:08;15.52;;;11.15;;
45764;SDS011;31474;45.332;10.230;2022-09-09T03:58:34;14.55;;;10.88;;
45764;SDS011;31474;45.332;10.230;2022-09-09T04:01:02;14.73;;;8.82;;
45764;SDS011;31474;45.332;10.230;2022-09-09T04:03:29;15.80;;;9.98;;
45764;SDS011;31474;45.332;10.230;2022-09-09T04:05:57;12.88;;;9.65;;
45764;SDS011;31474;45.332;10.230;2022-09-09T04:08:24;13.70;;;10.20;;
45764;SDS011;31474;45.332;10.230;2022-09-09T04:10:50;15.15;;;9.13;;
45764;SDS011;31474;45.332;10.230;2022-09-09T04:13:17;11.60;;;9.85;;
45764;SDS011;31474;45.332;10.230;2022-09-09T04:15:49;13.73;;;9.35;;
45764;SDS011;31474;45.332;10.230;2022-09-09T04:18:19;14.20;;;9.68;;
45764;SDS011;31474;45.332;10.230;2022-09-09T04:20:46;15.38;;;10.15;;
45764;SDS011;31474;45.332;10.230;2022-09-09T04:23:13;14.98;;;10.85;;
45764;SDS011;31474;45.332;10.230;2022-09-09T04:25:43;14.57;;;9.65;;
45764;SDS011;31474;45.332;10.230;2022-09-09T04:28:13;17.88;;;11.25;;
45764;SDS011;31474;45.332;10.230;2022-09-09T04:30:40;12.73;;;9.90;;
45764;SDS011;31474;45.332;10.230;2022-09-09T04:33:06;17.70;;;9.80;;
45764;SDS011;31474;45.332;10.230;2022-09-09T04:35:32;12.27;;;10.82;;
45764;SDS011;31474;45.332;10.230;2022-09-09T04:37:58;15.60;;;11.52;;
45764;SDS011;31474;45.332;10.230;2022-09-09T04:40:24;16.48;;;11.40;;
45764;SDS011;31474;45.332;10.230;2022-09-09T04:42:50;18.13;;;10.98;;
45764;SDS011;31474;45.332;10.230;2022-09-09T04:45:16;14.23;;;10.82;;
45764;SDS011;31474;45.332;10.230;2022-09-09T04:47:43;14.95;;;10.77;;
45764;SDS011;31474;45.332;10.230;2022-09-09T04:50:09;16.52;;;10.80;;
45764;SDS011;31474;45.332;10.230;2022-09-09T04:52:35;16.70;;;12.25;;
45764;SDS011;31474;45.332;10.230;2022-09-09T04:55:01;18.92;;;12.63;;
45764;SDS011;31474;45.332;10.230;2022-09-09T04:57:26;20.05;;;12.35;;
45764;SDS011;31474;45.332;10.230;2022-09-09T04:59:53;16.48;;;13.63;;
45764;SDS011;31474;45.332;10.230;2022-09-09T05:02:19;14.05;;;10.88;;
45764;SDS011;31474;45.332;10.230;2022-09-09T05:04:45;18.40;;;12.05;;
45764;SDS011;31474;45.332;10.230;2022-09-09T05:07:10;21.88;;;12.82;;
45764;SDS011;31474;45.332;10.230;2022-09-09T05:09:36;16.92;;;11.65;;
45764;SDS011;31474;45.332;10.230;2022-09-09T05:12:02;18.88;;;13.30;;
45764;SDS011;31474;45.332;10.230;2022-09-09T05:14:28;20.60;;;12.88;;
45764;SDS011;31474;45.332;10.230;2022-09-09T05:16:54;15.02;;;11.55;;
45764;SDS011;31474;45.332;10.230;2022-09-09T05:19:21;18.52;;;11.80;;
45764;SDS011;31474;45.332;10.230;2022-09-09T05:21:46;18.30;;;13.15;;
45764;SDS011;31474;45.332;10.230;2022-09-09T05:24:12;17.33;;;12.50;;
45764;SDS011;31474;45.332;10.230;2022-09-09T05:26:38;15.65;;;11.88;;
45764;SDS011;31474;45.332;10.230;2022-09-09T05:29:04;14.48;;;10.70;;
45764;SDS011;31474;45.332;10.230;2022-09-09T05:31:31;17.42;;;12.32;;
45764;SDS011;31474;45.332;10.230;2022-09-09T05:33:57;18.40;;;12.45;;
45764;SDS011;31474;45.332;10.230;2022-09-09T05:36:23;18.08;;;12.40;;
45764;SDS011;31474;45.332;10.230;2022-09-09T05:38:49;15.50;;;11.00;;
45764;SDS011;31474;45.332;10.230;2022-09-09T05:41:16;17.25;;;10.73;;
45764;SDS011;31474;45.332;10.230;2022-09-09T05:43:42;17.33;;;11.80;;
45764;SDS011;31474;45.332;10.230;2022-09-09T05:46:13;15.80;;;11.90;;
45764;SDS011;31474;45.332;10.230;2022-09-09T05:48:41;15.75;;;11.43;;
45764;SDS011;31474;45.332;10.230;2022-09-09T05:51:09;17.58;;;11.50;;
45764;SDS011;31474;45.332;10.230;2022-09-09T05:53:40;15.68;;;11.73;;
45764;SDS011;31474;45.332;10.230;2022-09-09T05:58:35;14.63;;;11.95;;
45764;SDS011;31474;45.332;10.230;2022-09-09T06:03:33;18.38;;;11.15;;
45764;SDS011;31474;45.332;10.230;2022-09-09T06:06:01;15.23;;;10.68;;
45764;SDS011;31474;45.332;10.230;2022-09-09T06:08:30;16.25;;;10.32;;
45764;SDS011;31474;45.332;10.230;2022-09-09T06:11:01;17.17;;;10.98;;
45764;SDS011;31474;45.332;10.230;2022-09-09T06:13:28;14.00;;;10.90;;
45764;SDS011;31474;45.332;10.230;2022-09-09T06:15:53;14.45;;;10.00;;
45764;SDS011;31474;45.332;10.230;2022-09-09T06:18:19;16.08;;;9.18;;
45764;SDS011;31474;45.332;10.230;2022-09-09T06:20:57;13.23;;;8.85;;
45764;SDS011;31474;45.332;10.230;2022-09-09T06:23:29;11.07;;;8.68;;
45764;SDS011;31474;45.332;10.230;2022-09-09T06:26:02;13.02;;;8.35;;
45764;SDS011;31474;45.332;10.230;2022-09-09T06:28:31;10.45;;;7.45;;
45764;SDS011;31474;45.332;10.230;2022-09-09T06:30:58;8.90;;;7.93;;
45764;SDS011;31474;45.332;10.230;2022-09-09T06:33:24;18.15;;;7.40;;
45764;SDS011;31474;45.332;10.230;2022-09-09T06:35:53;10.27;;;6.75;;
45764;SDS011;31474;45.332;10.230;2022-09-09T06:38:22;9.85;;;7.10;;
45764;SDS011;31474;45.332;10.230;2022-09-09T06:40:54;8.48;;;7.07;;
45764;SDS011;31474;45.332;10.230;2022-09-09T06:43:22;10.10;;;7.32;;
45764;SDS011;31474;45.332;10.230;2022-09-09T06:46:01;12.95;;;7.72;;
45764;SDS011;31474;45.332;10.230;2022-09-09T06:48:29;9.75;;;7.05;;
45764;SDS011;31474;45.332;10.230;2022-09-09T06:51:02;12.70;;;7.32;;
45764;SDS011;31474;45.332;10.230;2022-09-09T06:53:31;15.35;;;7.50;;
45764;SDS011;31474;45.332;10.230;2022-09-09T06:55:59;10.00;;;7.40;;
45764;SDS011;31474;45.332;10.230;2022-09-09T06:58:43;12.57;;;6.20;;
45764;SDS011;31474;45.332;10.230;2022-09-09T07:01:10;9.45;;;6.57;;
45764;SDS011;31474;45.332;10.230;2022-09-09T07:03:47;12.23;;;7.47;;
45764;SDS011;31474;45.332;10.230;2022-09-09T07:06:18;10.15;;;5.80;;
45764;SDS011;31474;45.332;10.230;2022-09-09T07:08:49;14.93;;;6.55;;
45764;SDS011;31474;45.332;10.230;2022-09-09T07:11:20;5.95;;;5.35;;
45764;SDS011;31474;45.332;10.230;2022-09-09T07:13:47;10.68;;;6.03;;
45764;SDS011;31474;45.332;10.230;2022-09-09T07:16:14;8.23;;;5.63;;
45764;SDS011;31474;45.332;10.230;2022-09-09T07:18:42;9.18;;;6.05;;
45764;SDS011;31474;45.332;10.230;2022-09-09T07:21:09;11.27;;;5.28;;
45764;SDS011;31474;45.332;10.230;2022-09-09T07:23:37;12.15;;;5.35;;
45764;SDS011;31474;45.332;10.230;2022-09-09T07:26:07;5.30;;;4.68;;
45764;SDS011;31474;45.332;10.230;2022-09-09T07:28:34;13.05;;;5.60;;
45764;SDS011;31474;45.332;10.230;2022-09-09T07:31:00;7.35;;;5.43;;
45764;SDS011;31474;45.332;10.230;2022-09-09T07:33:30;9.05;;;4.82;;
45764;SDS011;31474;45.332;10.230;2022-09-09T07:36:08;7.35;;;5.30;;
45764;SDS011;31474;45.332;10.230;2022-09-09T07:38:38;7.35;;;4.93;;
45764;SDS011;31474;45.332;10.230;2022-09-09T07:41:05;7.00;;;4.93;;
45764;SDS011;31474;45.332;10.230;2022-09-09T07:43:36;8.65;;;4.80;;
45764;SDS011;31474;45.332;10.230;2022-09-09T07:46:06;5.88;;;4.80;;
45764;SDS011;31474;45.332;10.230;2022-09-09T07:48:32;8.40;;;5.05;;
45764;SDS011;31474;45.332;10.230;2022-09-09T07:53:45;9.55;;;5.38;;
45764;SDS011;31474;45.332;10.230;2022-09-09T07:56:13;7.63;;;5.18;;
45764;SDS011;31474;45.332;10.230;2022-09-09T07:58:46;7.93;;;5.53;;
45764;SDS011;31474;45.332;10.230;2022-09-09T08:01:14;9.32;;;5.72;;
45764;SDS011;31474;45.332;10.230;2022-09-09T08:03:43;5.55;;;2.22;;
45764;SDS011;31474;45.332;10.230;2022-09-09T08:06:10;3.72;;;0.85;;
45764;SDS011;31474;45.332;10.230;2022-09-09T08:08:37;2.67;;;0.80;;
45764;SDS011;31474;45.332;10.230;2022-09-09T08:11:13;1.73;;;0.75;;
45764;SDS011;31474;45.332;10.230;2022-09-09T08:13:40;0.90;;;0.47;;
45764;SDS011;31474;45.332;10.230;2022-09-09T08:16:17;1.40;;;0.52;;
45764;SDS011;31474;45.332;10.230;2022-09-09T08:18:51;1.63;;;0.40;;
45764;SDS011;31474;45.332;10.230;2022-09-09T08:21:18;1.35;;;0.30;;
45764;SDS011;31474;45.332;10.230;2022-09-09T08:23:46;3.10;;;0.60;;
45764;SDS011;31474;45.332;10.230;2022-09-09T08:26:17;1.83;;;0.50;;
45764;SDS011;31474;45.332;10.230;2022-09-09T08:28:49;6.07;;;0.60;;
45764;SDS011;31474;45.332;10.230;2022-09-09T08:31:17;1.10;;;0.60;;
45764;SDS011;31474;45.332;10.230;2022-09-09T08:33:43;1.98;;;0.70;;
45764;SDS011;31474;45.332;10.230;2022-09-09T08:36:13;0.55;;;0.35;;
45764;SDS011;31474;45.332;10.230;2022-09-09T08:38:41;4.13;;;0.70;;
45764;SDS011;31474;45.332;10.230;2022-09-09T08:49:24;6.53;;;1.40;;
45764;SDS011;31474;45.332;10.230;2022-09-09T08:52:08;3.38;;;0.80;;
45764;SDS011;31474;45.332;10.230;2022-09-09T08:54:41;3.58;;;0.93;;
45764;SDS011;31474;45.332;10.230;2022-09-09T08:57:09;6.57;;;0.85;;
45764;SDS011;31474;45.332;10.230;2022-09-09T08:59:39;3.95;;;1.20;;
45764;SDS011;31474;45.332;10.230;2022-09-09T09:07:24;6.22;;;1.38;;
45764;SDS011;31474;45.332;10.230;2022-09-09T09:12:51;3.15;;;2.83;;
45764;SDS011;31474;45.332;10.230;2022-09-09T09:17:48;5.85;;;3.78;;
45764;SDS011;31474;45.332;10.230;2022-09-09T09:20:15;3.65;;;1.88;;
45764;SDS011;31474;45.332;10.230;2022-09-09T09:22:47;4.13;;;1.70;;
45764;SDS011;31474;45.332;10.230;2022-09-09T09:27:49;1.40;;;0.90;;
45764;SDS011;31474;45.332;10.230;2022-09-09T09:30:36;3.38;;;1.08;;
45764;SDS011;31474;45.332;10.230;2022-09-09T09:35:52;3.35;;;1.08;;
45764;SDS011;31474;45.332;10.230;2022-09-09T09:38:22;2.00;;;1.30;;
45764;SDS011;31474;45.332;10.230;2022-09-09T09:40:53;1.70;;;1.00;;
45764;SDS011;31474;45.332;10.230;2022-09-09T09:45:53;4.40;;;1.38;;
45764;SDS011;31474;45.332;10.230;2022-09-09T09:48:18;3.67;;;1.70;;
45764;SDS011;31474;45.332;10.230;2022-09-09T09:51:05;3.20;;;1.70;;
45764;SDS011;31474;45.332;10.230;2022-09-09T09:53:38;2.80;;;1.65;;
45764;SDS011;31474;45.332;10.230;2022-09-09T09:56:05;4.35;;;1.05;;
45764;SDS011;31474;45.332;10.230;2022-09-09T10:03:50;1.50;;;0.80;;
45764;SDS011;31474;45.332;10.230;2022-09-09T10:06:17;1.33;;;0.95;;
45764;SDS011;31474;45.332;10.230;2022-09-09T10:08:53;0.90;;;0.73;;
45764;SDS011;31474;45.332;10.230;2022-09-09T10:14:25;1.95;;;0.90;;
45764;SDS011;31474;45.332;10.230;2022-09-09T10:19:34;3.75;;;0.93;;
45764;SDS011;31474;45.332;10.230;2022-09-09T10:38:11;2.80;;;1.27;;
45764;SDS011;31474;45.332;10.230;2022-09-09T10:46:26;1.95;;;1.42;;
45764;SDS011;31474;45.332;10.230;2022-09-09T10:52:16;2.78;;;0.88;;
45764;SDS011;31474;45.332;10.230;2022-09-09T10:55:00;3.80;;;1.10;;
45764;SDS011;31474;45.332;10.230;2022-09-09T10:57:33;1.73;;;1.00;;
45764;SDS011;31474;45.332;10.230;2022-09-09T11:00:05;1.45;;;1.25;;
45764;SDS011;31474;45.332;10.230;2022-09-09T11:02:38;2.58;;;1.05;;
45764;SDS011;31474;45.332;10.230;2022-09-09T11:05:09;1.98;;;0.60;;
45764;SDS011;31474;45.332;10.230;2022-09-09T11:07:46;1.17;;;0.60;;
45764;SDS011;31474;45.332;10.230;2022-09-09T11:10:40;0.60;;;0.45;;
45764;SDS011;31474;45.332;10.230;2022-09-09T11:13:13;5.18;;;0.70;;
45764;SDS011;31474;45.332;10.230;2022-09-09T11:15:44;0.90;;;0.50;;
45764;SDS011;31474;45.332;10.230;2022-09-09T11:18:16;1.23;;;0.70;;
45764;SDS011;31474;45.332;10.230;2022-09-09T11:20:48;2.63;;;0.50;;
45764;SDS011;31474;45.332;10.230;2022-09-09T11:23:25;1.17;;;0.60;;
45764;SDS011;31474;45.332;10.230;2022-09-09T11:26:02;1.15;;;0.50;;
45764;SDS011;31474;45.332;10.230;2022-09-09T11:28:44;2.15;;;0.90;;
45764;SDS011;31474;45.332;10.230;2022-09-09T11:42:21;3.03;;;0.80;;
45764;SDS011;31474;45.332;10.230;2022-09-09T11:44:48;2.40;;;0.90;;
45764;SDS011;31474;45.332;10.230;2022-09-09T11:47:24;2.75;;;1.20;;
45764;SDS011;31474;45.332;10.230;2022-09-09T11:52:44;2.00;;;1.10;;
45764;SDS011;31474;45.332;10.230;2022-09-09T11:55:32;2.40;;;0.93;;
45764;SDS011;31474;45.332;10.230;2022-09-09T12:00:32;3.90;;;0.90;;
45764;SDS011;31474;45.332;10.230;2022-09-09T12:06:29;1.60;;;0.60;;
45764;SDS011;31474;45.332;10.230;2022-09-09T12:08:58;1.15;;;0.75;;
45764;SDS011;31474;45.332;10.230;2022-09-09T12:11:35;2.15;;;0.77;;
45764;SDS011;31474;45.332;10.230;2022-09-09T12:14:02;1.85;;;0.65;;
45764;SDS011;31474;45.332;10.230;2022-09-09T12:16:29;0.82;;;0.60;;
45764;SDS011;31474;45.332;10.230;2022-09-09T12:19:06;4.22;;;0.68;;
45764;SDS011;31474;45.332;10.230;2022-09-09T12:32:30;2.78;;;1.08;;
45764;SDS011;31474;45.332;10.230;2022-09-09T12:37:35;2.28;;;0.95;;
45764;SDS011;31474;45.332;10.230;2022-09-09T12:40:18;2.90;;;1.00;;
45764;SDS011;31474;45.332;10.230;2022-09-09T12:42:44;2.20;;;0.88;;
45764;SDS011;31474;45.332;10.230;2022-09-09T12:50:23;2.00;;;1.35;;
45764;SDS011;31474;45.332;10.230;2022-09-09T12:52:52;2.25;;;1.13;;
45764;SDS011;31474;45.332;10.230;2022-09-09T12:55:48;2.25;;;1.10;;
45764;SDS011;31474;45.332;10.230;2022-09-09T12:58:19;2.85;;;0.85;;
45764;SDS011;31474;45.332;10.230;2022-09-09T13:00:49;1.95;;;0.88;;
45764;SDS011;31474;45.332;10.230;2022-09-09T13:03:17;2.20;;;0.70;;
45764;SDS011;31474;45.332;10.230;2022-09-09T13:05:45;1.90;;;0.90;;
45764;SDS011;31474;45.332;10.230;2022-09-09T13:08:12;2.05;;;1.00;;
45764;SDS011;31474;45.332;10.230;2022-09-09T13:11:01;1.90;;;0.68;;
45764;SDS011;31474;45.332;10.230;2022-09-09T13:13:38;1.10;;;0.90;;
45764;SDS011;31474;45.332;10.230;2022-09-09T13:16:05;2.35;;;0.88;;
45764;SDS011;31474;45.332;10.230;2022-09-09T13:18:43;1.13;;;0.70;;
45764;SDS011;31474;45.332;10.230;2022-09-09T13:21:08;2.42;;;1.55;;
45764;SDS011;31474;45.332;10.230;2022-09-09T13:23:35;2.63;;;1.08;;
45764;SDS011;31474;45.332;10.230;2022-09-09T13:26:03;2.20;;;0.95;;
45764;SDS011;31474;45.332;10.230;2022-09-09T13:28:48;4.40;;;1.17;;
45764;SDS011;31474;45.332;10.230;2022-09-09T13:31:21;3.53;;;1.45;;
45764;SDS011;31474;45.332;10.230;2022-09-09T13:33:49;2.35;;;1.10;;
45764;SDS011;31474;45.332;10.230;2022-09-09T13:36:15;5.53;;;1.15;;
45764;SDS011;31474;45.332;10.230;2022-09-09T13:38:54;3.25;;;1.63;;
45764;SDS011;31474;45.332;10.230;2022-09-09T13:41:21;2.00;;;1.10;;
45764;SDS011;31474;45.332;10.230;2022-09-09T13:43:49;2.78;;;1.10;;
45764;SDS011;31474;45.332;10.230;2022-09-09T13:49:02;5.90;;;1.40;;
45764;SDS011;31474;45.332;10.230;2022-09-09T13:52:02;2.40;;;1.02;;
45764;SDS011;31474;45.332;10.230;2022-09-09T13:54:36;1.63;;;1.00;;
45764;SDS011;31474;45.332;10.230;2022-09-09T13:57:01;4.45;;;1.48;;
45764;SDS011;31474;45.332;10.230;2022-09-09T13:59:27;2.33;;;1.00;;
45764;SDS011;31474;45.332;10.230;2022-09-09T14:01:53;2.65;;;0.75;;
45764;SDS011;31474;45.332;10.230;2022-09-09T14:04:19;2.85;;;1.40;;
45764;SDS011;31474;45.332;10.230;2022-09-09T14:06:46;1.77;;;1.23;;
45764;SDS011;31474;45.332;10.230;2022-09-09T14:09:12;3.13;;;1.15;;
45764;SDS011;31474;45.332;10.230;2022-09-09T14:11:39;2.90;;;1.35;;
45764;SDS011;31474;45.332;10.230;2022-09-09T14:14:05;4.00;;;1.00;;
45764;SDS011;31474;45.332;10.230;2022-09-09T14:16:31;2.95;;;1.20;;
45764;SDS011;31474;45.332;10.230;2022-09-09T14:18:57;4.60;;;1.55;;
45764;SDS011;31474;45.332;10.230;2022-09-09T14:21:24;4.35;;;1.27;;
45764;SDS011;31474;45.332;10.230;2022-09-09T14:23:50;2.20;;;1.20;;
45764;SDS011;31474;45.332;10.230;2022-09-09T14:26:17;3.28;;;1.38;;
45764;SDS011;31474;45.332;10.230;2022-09-09T14:28:45;1.75;;;1.10;;
45764;SDS011;31474;45.332;10.230;2022-09-09T14:31:11;3.25;;;1.52;;
45764;SDS011;31474;45.332;10.230;2022-09-09T14:33:38;2.75;;;1.35;;
45764;SDS011;31474;45.332;10.230;2022-09-09T14:36:04;1.92;;;1.25;;
45764;SDS011;31474;45.332;10.230;2022-09-09T14:38:33;1.65;;;1.20;;
45764;SDS011;31474;45.332;10.230;2022-09-09T14:41:04;7.70;;;1.40;;
45764;SDS011;31474;45.332;10.230;2022-09-09T14:43:37;2.08;;;1.38;;
45764;SDS011;31474;45.332;10.230;2022-09-09T14:46:04;1.52;;;1.00;;
45764;SDS011;31474;45.332;10.230;2022-09-09T14:48:35;4.38;;;1.27;;
45764;SDS011;31474;45.332;10.230;2022-09-09T14:53:53;3.25;;;1.20;;
45764;SDS011;31474;45.332;10.230;2022-09-09T14:56:20;3.90;;;1.30;;
45764;SDS011;31474;45.332;10.230;2022-09-09T14:58:48;5.13;;;2.03;;
45764;SDS011;31474;45.332;10.230;2022-09-09T15:01:16;3.70;;;1.10;;
45764;SDS011;31474;45.332;10.230;2022-09-09T15:03:48;3.13;;;1.40;;
45764;SDS011;31474;45.332;10.230;2022-09-09T15:06:16;3.17;;;1.20;;
45764;SDS011;31474;45.332;10.230;2022-09-09T15:08:42;4.20;;;2.05;;
45764;SDS011;31474;45.332;10.230;2022-09-09T15:11:10;3.00;;;1.08;;
45764;SDS011;31474;45.332;10.230;2022-09-09T15:13:37;6.40;;;1.42;;
45764;SDS011;31474;45.332;10.230;2022-09-09T15:16:05;4.05;;;1.13;;
45764;SDS011;31474;45.332;10.230;2022-09-09T15:18:34;1.50;;;1.20;;
45764;SDS011;31474;45.332;10.230;2022-09-09T15:21:01;4.00;;;1.65;;
45764;SDS011;31474;45.332;10.230;2022-09-09T15:23:33;3.08;;;1.23;;
45764;SDS011;31474;45.332;10.230;2022-09-09T15:26:00;4.70;;;1.95;;
45764;SDS011;31474;45.332;10.230;2022-09-09T15:28:25;4.22;;;1.42;;
45764;SDS011;31474;45.332;10.230;2022-09-09T15:30:52;4.85;;;1.38;;
45764;SDS011;31474;45.332;10.230;2022-09-09T15:33:19;2.30;;;1.50;;
45764;SDS011;31474;45.332;10.230;2022-09-09T15:35:45;3.20;;;1.75;;
45764;SDS011;31474;45.332;10.230;2022-09-09T15:38:11;2.67;;;1.40;;
45764;SDS011;31474;45.332;10.230;2022-09-09T15:40:42;3.17;;;1.27;;
45764;SDS011;31474;45.332;10.230;2022-09-09T15:43:08;3.22;;;1.38;;
45764;SDS011;31474;45.332;10.230;2022-09-09T15:45:35;4.47;;;1.50;;
45764;SDS011;31474;45.332;10.230;2022-09-09T15:48:02;2.72;;;1.33;;
45764;SDS011;31474;45.332;10.230;2022-09-09T15:50:28;1.75;;;1.13;;
45764;SDS011;31474;45.332;10.230;2022-09-09T15:52:57;2.05;;;1.40;;
45764;SDS011;31474;45.332;10.230;2022-09-09T15:55:23;4.90;;;1.30;;
45764;SDS011;31474;45.332;10.230;2022-09-09T15:57:50;4.13;;;2.22;;
45764;SDS011;31474;45.332;10.230;2022-09-09T16:00:17;1.83;;;1.17;;
45764;SDS011;31474;45.332;10.230;2022-09-09T16:02:44;9.30;;;1.70;;
45764;SDS011;31474;45.332;10.230;2022-09-09T16:05:11;3.88;;;1.30;;
45764;SDS011;31474;45.332;10.230;2022-09-09T16:07:37;2.50;;;1.10;;
45764;SDS011;31474;45.332;10.230;2022-09-09T16:10:03;3.50;;;1.60;;
45764;SDS011;31474;45.332;10.230;2022-09-09T16:12:29;2.35;;;1.27;;
45764;SDS011;31474;45.332;10.230;2022-09-09T16:14:54;6.47;;;1.25;;
45764;SDS011;31474;45.332;10.230;2022-09-09T16:17:20;2.08;;;1.27;;
45764;SDS011;31474;45.332;10.230;2022-09-09T16:19:46;1.58;;;0.98;;
45764;SDS011;31474;45.332;10.230;2022-09-09T16:22:12;2.88;;;1.50;;
45764;SDS011;31474;45.332;10.230;2022-09-09T16:24:40;1.63;;;1.00;;
45764;SDS011;31474;45.332;10.230;2022-09-09T16:27:06;2.05;;;1.27;;
45764;SDS011;31474;45.332;10.230;2022-09-09T16:29:31;3.95;;;1.33;;
45764;SDS011;31474;45.332;10.230;2022-09-09T16:31:57;4.68;;;1.70;;
45764;SDS011;31474;45.332;10.230;2022-09-09T16:34:25;2.50;;;1.27;;
45764;SDS011;31474;45.332;10.230;2022-09-09T16:36:51;3.15;;;1.38;;
45764;SDS011;31474;45.332;10.230;2022-09-09T16:39:19;1.35;;;1.17;;
45764;SDS011;31474;45.332;10.230;2022-09-09T16:41:46;6.57;;;2.03;;
45764;SDS011;31474;45.332;10.230;2022-09-09T16:44:13;2.47;;;1.38;;
45764;SDS011;31474;45.332;10.230;2022-09-09T16:46:42;4.70;;;1.27;;
45764;SDS011;31474;45.332;10.230;2022-09-09T16:49:12;2.03;;;1.35;;
45764;SDS011;31474;45.332;10.230;2022-09-09T16:51:43;6.22;;;1.55;;
45764;SDS011;31474;45.332;10.230;2022-09-09T16:54:12;5.65;;;1.60;;
45764;SDS011;31474;45.332;10.230;2022-09-09T16:56:39;2.42;;;1.50;;
45764;SDS011;31474;45.332;10.230;2022-09-09T16:59:07;1.70;;;1.00;;
45764;SDS011;31474;45.332;10.230;2022-09-09T17:01:39;3.47;;;1.50;;
45764;SDS011;31474;45.332;10.230;2022-09-09T17:04:09;4.90;;;1.70;;
45764;SDS011;31474;45.332;10.230;2022-09-09T17:06:38;3.35;;;1.50;;
45764;SDS011;31474;45.332;10.230;2022-09-09T17:09:08;3.33;;;1.27;;
45764;SDS011;31474;45.332;10.230;2022-09-09T17:11:35;2.67;;;1.55;;
45764;SDS011;31474;45.332;10.230;2022-09-09T17:14:02;2.53;;;1.50;;
45764;SDS011;31474;45.332;10.230;2022-09-09T17:16:29;4.45;;;1.55;;
45764;SDS011;31474;45.332;10.230;2022-09-09T17:18:59;3.13;;;1.92;;